sensor_id;sensor_type;location;lat;lon;timestamp;P1;durP1;ratioP1;P2;durP2;ratioP2
50649;SDS011;36621;60.058;30.346;2023-05-10T00:01:02;100.72;;;21.25;;
50649;SDS011;36621;60.058;30.346;2023-05-10T00:08:35;82.28;;;14.63;;
50649;SDS011;36621;60.058;30.346;2023-05-10T00:16:07;63.88;;;11.10;;
50649;SDS011;36621;60.058;30.346;2023-05-10T00:23:39;71.13;;;13.73;;
50649;SDS011;36621;60.058;30.346;2023-05-10T00:31:12;37.50;;;10.05;;
50649;SDS011;36621;60.058;30.346;2023-05-10T00:38:45;38.60;;;9.93;;
50649;SDS011;36621;60.058;30.346;2023-05-10T00:46:18;50.17;;;11.95;;
50649;SDS011;36621;60.058;30.346;2023-05-10T00:53:50;29.45;;;11.40;;
50649;SDS011;36621;60.058;30.346;2023-05-10T01:01:24;19.55;;;9.55;;
50649;SDS011;36621;60.058;30.346;2023-05-10T01:08:56;25.30;;;9.95;;
50649;SDS011;36621;60.058;30.346;2023-05-10T01:16:29;26.48;;;9.05;;
50649;SDS011;36621;60.058;30.346;2023-05-10T01:24:09;17.77;;;12.00;;
50649;SDS011;36621;60.058;30.346;2023-05-10T01:40:03;22.92;;;10.82;;
50649;SDS011;36621;60.058;30.346;2023-05-10T01:47:42;20.15;;;10.52;;
50649;SDS011;36621;60.058;30.346;2023-05-10T01:55:18;27.75;;;10.75;;
50649;SDS011;36621;60.058;30.346;2023-05-10T02:02:55;37.33;;;12.05;;
50649;SDS011;36621;60.058;30.346;2023-05-10T02:10:28;51.17;;;11.80;;
50649;SDS011;36621;60.058;30.346;2023-05-10T02:18:02;45.47;;;10.95;;
50649;SDS011;36621;60.058;30.346;2023-05-10T02:25:37;65.63;;;12.75;;
50649;SDS011;36621;60.058;30.346;2023-05-10T02:33:10;70.22;;;16.05;;
50649;SDS011;36621;60.058;30.346;2023-05-10T02:40:43;117.65;;;18.15;;
50649;SDS011;36621;60.058;30.346;2023-05-10T02:48:19;43.17;;;13.02;;
50649;SDS011;36621;60.058;30.346;2023-05-10T02:55:51;38.05;;;11.48;;
50649;SDS011;36621;60.058;30.346;2023-05-10T03:03:27;31.98;;;13.07;;
50649;SDS011;36621;60.058;30.346;2023-05-10T03:11:05;74.90;;;16.65;;
50649;SDS011;36621;60.058;30.346;2023-05-10T03:18:53;107.90;;;18.13;;
50649;SDS011;36621;60.058;30.346;2023-05-10T03:26:28;39.83;;;16.92;;
50649;SDS011;36621;60.058;30.346;2023-05-10T03:34:13;43.95;;;23.88;;
50649;SDS011;36621;60.058;30.346;2023-05-10T03:41:46;292.10;;;30.65;;
50649;SDS011;36621;60.058;30.346;2023-05-10T03:49:19;152.77;;;26.15;;
50649;SDS011;36621;60.058;30.346;2023-05-10T03:56:52;60.33;;;21.40;;
50649;SDS011;36621;60.058;30.346;2023-05-10T04:04:26;75.93;;;16.25;;
50649;SDS011;36621;60.058;30.346;2023-05-10T04:11:58;50.70;;;13.13;;
50649;SDS011;36621;60.058;30.346;2023-05-10T04:19:32;47.50;;;9.98;;
50649;SDS011;36621;60.058;30.346;2023-05-10T04:27:04;19.55;;;7.10;;
50649;SDS011;36621;60.058;30.346;2023-05-10T04:34:37;12.85;;;4.78;;
50649;SDS011;36621;60.058;30.346;2023-05-10T04:42:09;14.38;;;4.80;;
50649;SDS011;36621;60.058;30.346;2023-05-10T04:49:42;16.52;;;4.30;;
50649;SDS011;36621;60.058;30.346;2023-05-10T04:57:14;8.35;;;4.60;;
50649;SDS011;36621;60.058;30.346;2023-05-10T05:04:46;14.20;;;3.97;;
50649;SDS011;36621;60.058;30.346;2023-05-10T05:12:18;12.95;;;3.75;;
50649;SDS011;36621;60.058;30.346;2023-05-10T05:19:51;8.32;;;3.35;;
50649;SDS011;36621;60.058;30.346;2023-05-10T05:27:23;11.43;;;3.05;;
50649;SDS011;36621;60.058;30.346;2023-05-10T05:34:57;13.15;;;3.22;;
50649;SDS011;36621;60.058;30.346;2023-05-10T05:42:30;12.45;;;3.40;;
50649;SDS011;36621;60.058;30.346;2023-05-10T05:50:04;22.52;;;3.72;;
50649;SDS011;36621;60.058;30.346;2023-05-10T05:57:37;12.95;;;3.90;;
50649;SDS011;36621;60.058;30.346;2023-05-10T06:05:09;6.70;;;2.80;;
50649;SDS011;36621;60.058;30.346;2023-05-10T06:12:42;5.82;;;2.60;;
50649;SDS011;36621;60.058;30.346;2023-05-10T06:20:15;12.82;;;3.67;;
50649;SDS011;36621;60.058;30.346;2023-05-10T06:27:47;8.85;;;3.03;;
50649;SDS011;36621;60.058;30.346;2023-05-10T06:35:20;23.58;;;3.22;;
50649;SDS011;36621;60.058;30.346;2023-05-10T06:42:53;14.35;;;3.55;;
50649;SDS011;36621;60.058;30.346;2023-05-10T06:50:25;7.32;;;2.70;;
